Long Beach, CA (90807)

11:47 AM PDT on August 22, 2014 (GMT -0700)
Bixby Knolls | Change Station
CLOSE
Current Station
Personal Weather Station
Location: Long Beach, CA
Elevation: 100 ft
Nearby Weather Stations
Active Advisory: High Surf Advisory

Elev 100 ft 33.83 °N, 118.18 °W | Updated 25 seconds ago

Scattered Clouds
Scattered Clouds
78.7 °F
Feels Like 81 °F
N
0.0
Wind Variable Wind from NNW
Gusts 5.0 mph

Today
High -- | Low -- °F
--% Chance of Precip.
Yesterday
High -- | Low -- °F
Precip. -- in
6:19 AM 7:30 PM
Waning Crescent, 7% visible
Pressure 29.99 in
Visibility 9.0 miles
Clouds Scattered Clouds 1700 ft
Heat Index 81 °F
Dew Point 68 °F
Humidity 69%
Rainfall 0.00 in
Snow Depth Not available.
UV 7 out of 12
Pollen 5.40 out of 12
Ozone Good
Flu Activity Not available.
METAR KLGB 221753Z 20006KT 9SM SCT017 24/18 A2999 RMK AO2 SLP153 T02390178 10239 20200 51009

More Conditions Fewer Conditions

Pressure 29.99 in
Visibility 9.0 miles
Clouds Scattered Clouds 1700 ft
Heat Index 81 °F
Dew Point 68 °F
Humidity 69%
Rainfall 0.00 in
Snow Depth Not available.
UV 7 out of 12
Pollen 5.40 out of 12
Ozone Good
Flu Activity Not available.
METAR KLGB 221753Z 20006KT 9SM SCT017 24/18 A2999 RMK AO2 SLP153 T02390178 10239 20200 51009

More Conditions Fewer Conditions

10-Day Weather Forecast

Almanac

Astronomy

Aug. 22, 2014 Rise Set
Actual Time 6:19 AM PDT 7:30 PM PDT
Civil Twilight 5:53 AM PDT 7:56 PM PDT
Nautical Twilight 5:22 AM PDT 8:27 PM PDT
Astronomical Twilight 4:50 AM PDT 8:59 PM PDT
Moon 3:49 AM PDT 5:40 PM PDT
Length of Visible Light 14h 03m
Length of Day
13h 11m
Tomorrow will be 1m 56s shorter.
Waning Crescent, 7% of the Moon is Illuminated
Today
Waning Crescent
Aug 25
New
Sep 2
First Quarter
Sep 8
Full
Sep 15
Last Quarter

Today's Extremes

State Highs State Lows

Community

WunderPhotos

Upload Photos

1,746,216 photos uploaded!

Nearby

Air Quality

  Air Quality AQ Index Pollutant
Yesterday Good
OZONE
Current Good
OZONE
Saturday Good
OZONE
Saturday Good
PM10
Saturday Good
CO
Saturday Good
NO2

Snow Depth

Station Depth Elevation
Leavitt Lake 0 in 9400 ft
Leavitt Meadows 0 in 7200 ft
Summit Meadow 0 in 9122 ft
Forestdale Creek 0 in 8029 ft
Hagan's Meadow 0 in 8000 ft

Earthquake Activity

City Distance Mag. Time & Date
Big Bear City, California 84 miles 3.7 9:55 PM PDT
2014-08-17
Minimum magnitude displayed is 2.5.

Coastal Water Temperatures

Place Temperature
Santa Monica Pier 70.0 °F
Los Angeles, CA 68.0 °F
La Jolla, CA 70.0 °F

Nearby Weather Stations